Adelbach, Germany

2:13 PM CET on January 21, 2017 (GMT +0100)
Kirgelweg | | Change Station

Elev 1234 ft 48.99 °N, 9.76 °E | Updated 1 minute ago

Clear
Clear
30.9 °F
Feels Like 31 °F
N
3.0
Wind Variable Wind from NW
Gusts 4.0 mph

Today
High -- | Low -- °F
--% Chance of Precip.
Yesterday
High -- | Low -- °F
Precip. -- in
Pressure 30.33 in
Visibility 4.3 miles
Clouds
Windchill 31 °F
Dew Point 22 °F
Humidity 69%
Rainfall 0.00 in
Snow Depth Not available.
8:04 AM 5:00 PM
Waning Crescent, 35% visible
METAR EDTY 211250Z 08006KT 7000 NSC M02/M07 Q1027
Pressure 30.33 in
Visibility 4.3 miles
Clouds
Windchill 31 °F
Dew Point 22 °F
Humidity 69%
Rainfall 0.00 in
Snow Depth Not available.
8:04 AM 5:00 PM
Waning Crescent, 35% visible
METAR EDTY 211250Z 08006KT 7000 NSC M02/M07 Q1027

Get Your Daily Forecast Email!

Thanks for signing up!

Be on the lookout for a verification email in your inbox.

You'll start receiving the daily forecast at 8 AM.

×

10-Day Weather Forecast

×

Almanac

Astronomy

Jan. 21, 2017 Rise Set
Actual Time
Civil Twilight
Nautical Twilight
Astronomical Twilight
Moon
Length of Visible Light
Length of Day
Tomorrow will be .
, % of the Moon is Illuminated

Today's Extremes

Country Highs Country Lows

Community

WunderPhotos

Upload Photos

1,962,540 photos uploaded!

WunderBlog® & News

Nearby

Air Quality

  Air Quality AQ Index Pollutant
Not available.

Snow Depth

Station Depth Elevation

Earthquake Activity

City Distance Mag. Time & Date
Minimum magnitude displayed is 2.5.

Coastal Water Temperatures

Place Temperature

Stations

Nearby Weather Stations

Station Location Temp. Windchill Dew Point Humidity Wind Precip. Elev Updated Type